createdAt,value
2018-12-06T00:01:15.972Z,99665.72
2018-12-06T00:03:45.755Z,99660.42
2018-12-06T00:07:43.041Z,99659.88
2018-12-06T00:10:14.148Z,99652.33
2018-12-06T00:12:44.727Z,99654.19
2018-12-06T00:15:27.605Z,99654.24
2018-12-06T00:17:58.841Z,99657.63
2018-12-06T00:20:30.445Z,99652.13
2018-12-06T00:23:02.286Z,99641.86
2018-12-06T00:25:33.657Z,99644.03
2018-12-06T00:28:04.687Z,99636.11
2018-12-06T00:30:41.089Z,99631.89
2018-12-06T00:33:12.619Z,99634.99
2018-12-06T00:35:42.931Z,99633.81
2018-12-06T00:38:15.493Z,99628.91
2018-12-06T00:40:46.668Z,99634.27
2018-12-06T00:43:19.251Z,99626.83
2018-12-06T00:45:50.521Z,99628.37
2018-12-06T00:48:22.722Z,99616.94
2018-12-06T00:50:55.247Z,99611.22
2018-12-06T00:53:26.245Z,99616.52
2018-12-06T00:55:57.495Z,99621.43
2018-12-06T00:58:29.218Z,99624.67
2018-12-06T01:01:01.279Z,99622.60
2018-12-06T01:03:33.975Z,99621.03
2018-12-06T01:06:05.701Z,99616.98
2018-12-06T01:08:35.776Z,99609.73
2018-12-06T01:11:08.499Z,99600.78
2018-12-06T01:13:40.291Z,99596.90
2018-12-06T01:16:12.601Z,99607.75
2018-12-06T01:18:43.431Z,99605.86
2018-12-06T01:21:15.199Z,99591.05
2018-12-06T01:23:46.663Z,99590.28
2018-12-06T01:26:17.657Z,99587.91
2018-12-06T01:28:50.110Z,99579.89
2018-12-06T01:31:20.600Z,99573.81
2018-12-06T01:33:52.720Z,99568.89
2018-12-06T01:36:25.249Z,99575.80
2018-12-06T01:38:56.453Z,99573.50
2018-12-06T01:41:27.965Z,99571.79
2018-12-06T01:43:59.085Z,99558.36
2018-12-06T01:46:31.743Z,99550.25
2018-12-06T01:49:03.621Z,99551.41
2018-12-06T01:51:36.554Z,99549.53
2018-12-06T01:54:07.654Z,99532.77
2018-12-06T01:57:31.526Z,99534.03
2018-12-06T02:00:03.336Z,99525.38
2018-12-06T02:02:33.656Z,99521.46
2018-12-06T02:05:06.634Z,99525.88
2018-12-06T02:07:37.365Z,99526.10
2018-12-06T02:10:08.305Z,99522.38
2018-12-06T02:12:38.950Z,99517.16
2018-12-06T02:15:10.354Z,99494.80
2018-12-06T02:17:40.282Z,99521.98
2018-12-06T02:20:11.393Z,99497.93
2018-12-06T02:22:41.791Z,99519.98
2018-12-06T02:25:14.045Z,99520.00
2018-12-06T02:27:44.337Z,99518.09
2018-12-06T02:30:15.054Z,99507.45
2018-12-06T02:32:46.382Z,99503.23
2018-12-06T02:35:18.141Z,99498.52
2018-12-06T02:37:49.680Z,99494.98
2018-12-06T02:40:20.743Z,99492.68
2018-12-06T02:42:51.006Z,99490.98
2018-12-06T02:45:21.084Z,99490.76
2018-12-06T02:47:52.098Z,99491.88
2018-12-06T02:50:23.622Z,99492.98
2018-12-06T02:52:56.285Z,99495.28
2018-12-06T02:55:27.078Z,99493.67
2018-12-06T02:57:59.818Z,99488.75
2018-12-06T03:00:31.348Z,99485.31
2018-12-06T03:03:02.072Z,99479.78
2018-12-06T03:05:33.505Z,99481.20
2018-12-06T03:08:05.223Z,99471.33
2018-12-06T03:10:36.759Z,99466.92
2018-12-06T03:13:07.732Z,99468.61
2018-12-06T03:15:37.667Z,99467.12
2018-12-06T03:18:08.704Z,99471.04
2018-12-06T03:20:40.250Z,99463.81
2018-12-06T03:23:11.076Z,99454.55
2018-12-06T03:25:41.715Z,99448.12
2018-12-06T03:28:12.782Z,99440.78
2018-12-06T03:30:42.960Z,99435.05
2018-12-06T03:33:14.222Z,99434.45
2018-12-06T03:35:44.769Z,99430.42
2018-12-06T03:38:18.380Z,99427.73
2018-12-06T03:40:50.599Z,99432.05
2018-12-06T03:43:22.424Z,99430.85
2018-12-06T03:45:52.842Z,99432.24
2018-12-06T03:48:24.170Z,99435.16
2018-12-06T03:50:55.833Z,99430.02
2018-12-06T03:53:26.424Z,99423.78
2018-12-06T03:55:56.764Z,99419.66
2018-12-06T03:58:32.281Z,99427.89
2018-12-06T04:01:02.343Z,99417.55
2018-12-06T04:03:33.329Z,99424.58
2018-12-06T04:06:04.265Z,99419.46
2018-12-06T04:08:36.096Z,99426.78
2018-12-06T04:11:06.544Z,99429.00
2018-12-06T04:13:36.931Z,99436.84
2018-12-06T04:16:06.918Z,99431.09
2018-12-06T04:18:37.154Z,99440.64
2018-12-06T04:21:07.444Z,99439.63
2018-12-06T04:23:37.236Z,99383.48
2018-12-06T04:26:08.535Z,99446.25
2018-12-06T04:28:40.273Z,99456.22
2018-12-06T04:31:10.500Z,99458.64
2018-12-06T04:33:40.413Z,99453.41
2018-12-06T04:36:11.818Z,99452.72
2018-12-06T04:38:42.534Z,99383.98
2018-12-06T04:41:14.686Z,99456.76
2018-12-06T04:43:44.825Z,99462.57
2018-12-06T04:46:15.635Z,99373.84
2018-12-06T04:48:45.938Z,99458.46
2018-12-06T04:51:16.136Z,99456.45
2018-12-06T04:53:46.023Z,99462.57
2018-12-06T04:56:16.033Z,99466.00
2018-12-06T04:58:46.297Z,99465.38
2018-12-06T05:01:25.089Z,99459.26
2018-12-06T05:03:55.443Z,99466.50
2018-12-06T05:06:25.839Z,99466.50
2018-12-06T05:08:55.836Z,99469.80
2018-12-06T05:11:30.735Z,99465.29
2018-12-06T05:14:00.875Z,99462.86
2018-12-06T05:16:30.877Z,99459.55
2018-12-06T05:19:00.838Z,99467.99
2018-12-06T05:21:32.726Z,99468.41
2018-12-06T05:24:03.182Z,99464.61
2018-12-06T05:26:33.662Z,99458.66
2018-12-06T05:29:03.705Z,99456.36
2018-12-06T05:31:33.553Z,99458.38
2018-12-06T05:34:03.518Z,99448.30
2018-12-06T05:36:33.976Z,99448.00
2018-12-06T05:39:03.738Z,99443.19
2018-12-06T05:41:33.681Z,99450.11
2018-12-06T05:44:04.209Z,99454.14
2018-12-06T05:46:33.969Z,99442.64
2018-12-06T05:49:03.849Z,99444.68
2018-12-06T05:51:34.037Z,99448.80
2018-12-06T05:54:04.355Z,99441.84
2018-12-06T05:56:34.232Z,99437.02
2018-12-06T05:59:04.231Z,99433.41
2018-12-06T06:01:34.214Z,99430.81
2018-12-06T06:04:05.603Z,99428.20
2018-12-06T06:06:36.244Z,99419.05
2018-12-06T06:09:08.408Z,99420.09
2018-12-06T06:11:38.666Z,99342.59
2018-12-06T06:14:08.504Z,99434.77
2018-12-06T06:16:38.449Z,99435.77
2018-12-06T06:19:08.216Z,99436.47
2018-12-06T06:21:38.370Z,99442.81
2018-12-06T06:24:08.587Z,99430.82
2018-12-06T06:26:39.164Z,99435.24
2018-12-06T06:29:09.806Z,99433.85
2018-12-06T06:31:39.543Z,99436.47
2018-12-06T06:34:09.450Z,99434.93
2018-12-06T06:36:39.801Z,99433.43
2018-12-06T06:39:10.298Z,99437.55
2018-12-06T06:41:40.181Z,99442.77
2018-12-06T06:44:10.550Z,99459.08
2018-12-06T06:46:40.643Z,99456.66
2018-12-06T06:49:13.729Z,99448.81
2018-12-06T06:51:42.159Z,99458.16
2018-12-06T06:54:12.448Z,99459.38
2018-12-06T06:56:42.152Z,99469.13
2018-12-06T06:59:12.257Z,99477.70
2018-12-06T07:01:42.001Z,99481.70
2018-12-06T07:04:12.051Z,99489.27
2018-12-06T07:06:44.284Z,99484.55
2018-12-06T07:09:14.042Z,99489.08
2018-12-06T07:11:43.772Z,99487.27
2018-12-06T07:14:13.778Z,99489.35
2018-12-06T07:16:44.912Z,99479.00
2018-12-06T07:19:14.951Z,99473.27
2018-12-06T07:21:44.831Z,99474.48
2018-12-06T07:24:15.172Z,99467.02
2018-12-06T07:26:45.448Z,99465.82
2018-12-06T07:29:16.104Z,99450.13
2018-12-06T07:31:46.074Z,99441.47
2018-12-06T07:34:17.433Z,99432.11
2018-12-06T07:36:47.262Z,99416.92
2018-12-06T07:39:17.640Z,99409.88
2018-12-06T07:41:47.729Z,99422.94
2018-12-06T07:44:19.928Z,99443.34
2018-12-06T07:46:50.142Z,99460.53
2018-12-06T07:49:20.329Z,99446.67
2018-12-06T07:51:50.405Z,99472.12
2018-12-06T07:54:20.602Z,99469.61
2018-12-06T07:56:50.396Z,99475.29
2018-12-06T07:59:20.340Z,99386.05
2018-12-06T08:01:50.064Z,99495.00
2018-12-06T08:04:21.237Z,99483.93
2018-12-06T08:06:52.032Z,99478.08
2018-12-06T08:09:24.633Z,99490.65
2018-12-06T08:11:54.610Z,99497.75
2018-12-06T08:14:24.940Z,99509.70
2018-12-06T08:16:54.839Z,99512.09
2018-12-06T08:19:25.994Z,99516.68
2018-12-06T08:22:04.536Z,99521.39
2018-12-06T08:24:34.813Z,99522.41
2018-12-06T08:27:06.382Z,99529.03
2018-12-06T08:29:37.167Z,99434.52
2018-12-06T08:32:07.872Z,99539.06
2018-12-06T08:34:40.400Z,99525.00
2018-12-06T08:37:10.650Z,99538.21
2018-12-06T08:39:42.219Z,99533.63
2018-12-06T08:42:12.035Z,99533.69
2018-12-06T08:44:42.476Z,99537.58
2018-12-06T14:38:10.018Z,99554.23
2018-12-06T14:40:39.981Z,99555.44
2018-12-06T14:43:10.342Z,99566.05
2018-12-06T14:45:40.376Z,99560.80
2018-12-06T14:48:11.160Z,99554.34
2018-12-06T14:50:41.196Z,99545.82
2018-12-06T14:53:11.286Z,99552.17
2018-12-06T14:55:41.145Z,99566.23
2018-12-06T14:58:11.947Z,99568.00
2018-12-06T15:00:42.563Z,99560.77
2018-12-06T15:03:12.364Z,99556.44
2018-12-06T15:05:43.850Z,99560.80
2018-12-06T15:08:13.883Z,99555.56
2018-12-06T15:10:43.948Z,99565.45
2018-12-06T15:13:13.862Z,99561.11
2018-12-06T15:15:47.782Z,99565.20
2018-12-06T15:18:21.084Z,99568.73
2018-12-06T15:20:53.406Z,99513.27
2018-12-06T15:23:24.292Z,99590.17
2018-12-06T15:25:54.813Z,99586.95
2018-12-06T15:28:25.015Z,99586.84
2018-12-06T15:30:57.685Z,99591.98
2018-12-06T15:33:27.890Z,99595.64
2018-12-06T15:35:57.997Z,99590.37
2018-12-06T15:38:27.985Z,99593.98
2018-12-06T15:40:58.075Z,99590.19
2018-12-06T15:43:29.626Z,99588.84
2018-12-06T15:45:59.372Z,99597.55
2018-12-06T15:48:29.943Z,99598.99
2018-12-06T15:50:59.684Z,99601.36
2018-12-06T15:53:29.495Z,99588.14
2018-12-06T15:56:01.008Z,99584.74
2018-12-06T15:58:30.782Z,99584.38
2018-12-06T16:01:00.620Z,99587.50
2018-12-06T16:03:31.201Z,99579.86
2018-12-06T16:06:01.724Z,99581.55
2018-12-06T16:08:32.643Z,99575.97
2018-12-06T16:11:02.893Z,99584.03
2018-12-06T16:13:32.945Z,99579.59
2018-12-06T16:16:02.829Z,99581.48
2018-12-06T16:18:33.129Z,99584.07
2018-12-06T16:21:03.013Z,99582.22
2018-12-06T16:23:32.811Z,99580.20
2018-12-06T16:26:06.667Z,99571.63
2018-12-06T16:28:38.038Z,99568.37
2018-12-06T16:31:10.429Z,99567.33
2018-12-06T16:33:42.510Z,99568.09
2018-12-06T16:36:12.624Z,99584.14
2018-12-06T16:38:43.516Z,99581.13
2018-12-06T16:41:14.138Z,99582.27
2018-12-06T16:43:44.217Z,99573.89
2018-12-06T16:46:16.707Z,99581.45
2018-12-06T16:48:46.842Z,99580.66
2018-12-06T16:51:17.258Z,99583.23
2018-12-06T16:53:48.030Z,99578.23
2018-12-06T16:56:17.972Z,99573.95
2018-12-06T16:58:48.863Z,99566.65
2018-12-06T17:01:19.148Z,99570.52
2018-12-06T17:03:49.022Z,99565.57
2018-12-06T17:06:19.109Z,99562.95
2018-12-06T17:08:49.853Z,99569.08
2018-12-06T17:11:20.423Z,99576.17
2018-12-06T17:13:51.838Z,99576.19
2018-12-06T17:16:21.847Z,99572.91
2018-12-06T17:18:51.599Z,99570.73
2018-12-06T17:21:21.888Z,99566.84
2018-12-06T17:23:53.012Z,99562.45
2018-12-06T17:26:23.352Z,99559.89
2018-12-06T17:28:53.520Z,99550.78
2018-12-06T17:31:23.393Z,99556.84
2018-12-06T17:33:54.223Z,99555.62
2018-12-06T17:36:26.730Z,99552.14
2018-12-06T17:38:57.670Z,99555.17
2018-12-06T17:41:28.744Z,99552.64
2018-12-06T17:43:59.103Z,99544.52
2018-12-06T17:46:28.874Z,99546.40
2018-12-06T17:48:58.790Z,99558.52
2018-12-06T17:51:28.869Z,99555.38
2018-12-06T17:53:58.751Z,99558.87
2018-12-06T17:56:28.911Z,99562.60
2018-12-06T17:58:59.244Z,99560.33
2018-12-06T18:01:29.205Z,99554.92
2018-12-06T18:04:00.603Z,99547.50
2018-12-06T18:06:30.917Z,99540.95
2018-12-06T18:09:00.977Z,99542.05
2018-12-06T18:11:31.135Z,99543.81
2018-12-06T18:14:01.417Z,99551.03
2018-12-06T18:16:31.376Z,99547.84
2018-12-06T18:19:01.209Z,99549.57
2018-12-06T18:21:31.766Z,99545.57
2018-12-06T18:24:01.533Z,99543.36
2018-12-06T18:26:32.332Z,99536.77
2018-12-06T18:29:02.880Z,99537.81
2018-12-06T18:31:32.961Z,99537.91
2018-12-06T18:34:05.156Z,99540.91
2018-12-06T18:36:37.849Z,99547.78
2018-12-06T18:39:09.675Z,99382.01
2018-12-06T18:41:39.625Z,99544.11
2018-12-06T18:44:12.927Z,99536.34
2018-12-06T18:46:58.478Z,99538.55
2018-12-06T18:49:29.754Z,99528.69
2018-12-06T18:52:00.626Z,99522.63
2018-12-06T18:54:32.088Z,99525.11
2018-12-06T18:57:02.416Z,99515.56
2018-12-06T18:59:32.786Z,99509.06
2018-12-06T19:02:05.564Z,99505.48
2018-12-06T19:04:35.883Z,99507.02
2018-12-06T19:07:06.204Z,99501.67
2018-12-06T19:09:37.564Z,99498.54
2018-12-06T19:12:07.687Z,99488.25
2018-12-06T19:17:39.362Z,99485.02
2018-12-06T19:20:11.106Z,99483.88
2018-12-06T19:22:41.250Z,99487.81
2018-12-06T19:25:11.439Z,99479.47
2018-12-06T19:27:41.652Z,99476.92
2018-12-06T19:30:12.879Z,99466.55
2018-12-06T19:32:45.781Z,99401.30
2018-12-06T19:35:16.791Z,99476.52
2018-12-06T19:37:47.987Z,99469.14
2018-12-06T19:40:18.356Z,99465.11
2018-12-06T19:42:49.209Z,99470.03
2018-12-06T19:45:20.236Z,99462.44
2018-12-06T19:47:50.086Z,99456.38
2018-12-06T19:50:21.559Z,99454.34
2018-12-06T19:52:51.804Z,99459.43
2018-12-06T19:55:28.384Z,99455.48
2018-12-06T19:57:59.025Z,99445.95
2018-12-06T20:00:30.592Z,99462.52
2018-12-06T20:03:00.521Z,99463.03
2018-12-06T20:05:30.553Z,99468.04
2018-12-06T20:08:00.690Z,99458.03
2018-12-06T20:10:31.726Z,99456.12
2018-12-06T20:13:03.204Z,99452.39
2018-12-06T20:15:33.609Z,99441.19
2018-12-06T20:18:03.660Z,99444.03
2018-12-06T20:20:33.449Z,99459.30
2018-12-06T20:23:04.582Z,99457.23
2018-12-06T20:25:34.837Z,99463.67
2018-12-06T20:28:04.717Z,99454.93
2018-12-06T20:30:34.927Z,99460.48
2018-12-06T20:33:04.720Z,99465.06
2018-12-06T20:35:34.987Z,99462.95
2018-12-06T20:38:05.575Z,99455.36
2018-12-06T20:40:35.476Z,99448.70
2018-12-06T20:43:05.969Z,99445.78
2018-12-06T20:45:37.613Z,99441.03
2018-12-06T20:48:07.537Z,99443.78
2018-12-06T20:50:37.342Z,99443.91
2018-12-06T20:53:07.257Z,99444.42
2018-12-06T20:55:37.468Z,99439.25
2018-12-06T20:58:14.649Z,99434.50
2018-12-06T21:00:39.817Z,99430.39
2018-12-06T21:03:12.193Z,99431.14
2018-12-06T21:05:42.607Z,99423.81
2018-12-06T21:08:12.751Z,99421.86
2018-12-06T21:10:42.915Z,99426.31
2018-12-06T21:13:13.048Z,99430.81
2018-12-06T21:15:43.161Z,99430.89
2018-12-06T21:18:12.824Z,99421.86
2018-12-06T21:20:43.142Z,99430.59
2018-12-06T21:23:13.047Z,99433.77
2018-12-06T21:25:43.010Z,99433.26
2018-12-06T21:28:14.332Z,99425.38
2018-12-06T21:30:44.738Z,99422.82
2018-12-06T21:33:14.689Z,99417.47
2018-12-06T21:35:44.847Z,99413.54
2018-12-06T21:38:16.192Z,99410.81
2018-12-06T21:40:46.080Z,99415.56
2018-12-06T21:43:16.394Z,99407.72
2018-12-06T21:45:46.073Z,99409.41
2018-12-06T21:48:16.478Z,99406.41
2018-12-06T21:50:46.600Z,99417.00
2018-12-06T21:53:16.313Z,99419.97
2018-12-06T21:55:46.044Z,99337.72
2018-12-06T21:58:17.084Z,99402.05
2018-12-06T22:00:46.911Z,99312.98
2018-12-06T22:03:16.677Z,99406.28
2018-12-06T22:05:46.750Z,99403.95
2018-12-06T22:08:20.417Z,99412.50
2018-12-06T22:10:51.722Z,99418.30
2018-12-06T22:13:22.333Z,99418.70
2018-12-06T22:15:53.195Z,99414.09
2018-12-06T22:18:23.517Z,99421.67
2018-12-06T22:20:53.841Z,99427.97
2018-12-06T22:23:23.600Z,99414.09
2018-12-06T22:25:53.751Z,99414.20
2018-12-06T22:28:23.520Z,99409.16
2018-12-06T22:30:53.269Z,99405.97
2018-12-06T22:33:23.804Z,99405.50
2018-12-06T22:35:54.452Z,99408.20
2018-12-06T22:38:25.126Z,99405.20
2018-12-06T22:40:55.043Z,99401.25
2018-12-06T22:43:26.127Z,99394.48
2018-12-06T22:46:00.360Z,99396.46
2018-12-06T22:48:30.172Z,99391.13
2018-12-06T22:50:59.930Z,99391.45
2018-12-06T22:53:30.055Z,99375.23
2018-12-06T22:56:00.684Z,99379.00
2018-12-06T22:58:31.828Z,99376.84
2018-12-06T23:01:03.358Z,99386.27
2018-12-06T23:03:34.138Z,99387.25
2018-12-06T23:06:04.614Z,99375.41
2018-12-06T23:08:34.677Z,99385.36
2018-12-06T23:11:06.231Z,99380.28
2018-12-06T23:13:36.329Z,99372.53
2018-12-06T23:16:12.148Z,99375.75
2018-12-06T23:18:42.157Z,99362.30
2018-12-06T23:21:12.725Z,99364.09
2018-12-06T23:23:43.186Z,99360.44
2018-12-06T23:26:13.550Z,99364.20
2018-12-06T23:28:44.218Z,99354.98
2018-12-06T23:31:14.019Z,99350.52
2018-12-06T23:33:45.128Z,99355.05
2018-12-06T23:36:15.213Z,99343.36
2018-12-06T23:38:45.540Z,99339.64
2018-12-06T23:41:15.538Z,99350.75
2018-12-06T23:43:45.547Z,99344.69
2018-12-06T23:46:16.310Z,99312.94
2018-12-06T23:48:46.317Z,99327.41
2018-12-06T23:51:27.532Z,99334.75
2018-12-06T23:53:57.499Z,99316.73
2018-12-06T23:56:27.495Z,99305.23
2018-12-06T23:58:57.499Z,99302.81
